Time;durP1;ratioP1;P1;durP2;ratioP2;P2;SDS_P1;SDS_P2;PMS_P1;PMS_P2;Temp;Humidity;BMP_temperature;BMP_pressure;BME280_temperature;BME280_humidity;BME280_pressure;Samples;Min_cycle;Max_cycle;Signal;HPM_P1;HPM_P2
2024/01/09 00:01:13;;;;;;;7.60;5.67;;;2.30;99.90;;;2.00;68.86;94909.84;5008589;28;20474;-70
2024/01/09 00:03:40;;;;;;;9.27;7.33;;;2.30;99.90;;;1.98;68.77;94917.72;5012810;28;20453;-68
2024/01/09 00:06:13;;;;;;;6.73;5.87;;;2.30;99.90;;;1.96;68.39;94916.97;5012165;28;20555;-69
2024/01/09 00:08:42;;;;;;;6.60;5.83;;;2.30;99.90;;;1.97;67.69;94919.47;5008087;28;20446;-63
2024/01/09 00:11:10;;;;;;;8.50;7.00;;;2.30;99.90;;;1.96;68.22;94917.78;5011776;28;20479;-69
2024/01/09 00:13:37;;;;;;;7.67;6.10;;;2.30;99.90;;;1.94;68.41;94924.84;5011348;28;20677;-63
2024/01/09 00:16:05;;;;;;;9.13;6.63;;;2.20;99.90;;;1.92;68.50;94924.09;5011894;28;20561;-68
2024/01/09 00:18:33;;;;;;;6.87;6.10;;;2.20;99.90;;;1.94;68.84;94924.00;5016900;28;20564;-64
2024/01/09 00:21:00;;;;;;;8.03;6.60;;;2.20;99.90;;;1.95;67.87;94926.53;5009220;28;20536;-70
2024/01/09 00:23:27;;;;;;;7.37;6.60;;;2.20;99.90;;;1.94;68.78;94929.19;5012298;28;20476;-63
2024/01/09 00:25:56;;;;;;;7.03;6.30;;;2.20;99.90;;;1.92;67.65;94931.88;5011791;28;20477;-70
2024/01/09 00:28:23;;;;;;;10.37;6.70;;;2.20;99.90;;;1.91;67.78;94937.16;5011670;28;20465;-71
2024/01/09 00:30:51;;;;;;;7.67;6.97;;;2.20;99.90;;;1.92;68.45;94936.22;5012039;28;20473;-70
2024/01/09 00:33:18;;;;;;;8.00;6.17;;;2.20;99.90;;;1.93;68.05;94935.31;5013442;28;20985;-63
2024/01/09 00:35:46;;;;;;;9.53;5.90;;;2.20;99.90;;;1.92;68.37;94938.81;5014673;28;20508;-63
2024/01/09 00:38:13;;;;;;;7.67;5.90;;;2.20;99.90;;;1.89;68.40;94941.56;5014673;28;20450;-68
2024/01/09 00:40:41;;;;;;;8.33;6.33;;;2.20;99.90;;;1.87;68.01;94946.00;5011490;28;20474;-69
2024/01/09 00:43:09;;;;;;;7.33;5.77;;;2.20;99.90;;;1.86;68.44;94946.94;5011145;28;21087;-63
2024/01/09 00:45:36;;;;;;;8.33;6.67;;;2.20;99.90;;;1.85;69.01;94947.88;5007909;28;20466;-69
2024/01/09 00:48:05;;;;;;;7.43;6.57;;;2.10;99.90;;;1.85;68.17;94951.28;5011645;28;20859;-63
2024/01/09 00:50:32;;;;;;;9.43;5.87;;;2.10;99.90;;;1.84;68.99;94952.19;5011032;28;20497;-63
2024/01/09 00:53:00;;;;;;;7.53;5.90;;;2.10;99.90;;;1.81;68.07;94961.91;5009934;28;20445;-62
2024/01/09 00:55:27;;;;;;;7.93;6.97;;;2.10;99.90;;;1.80;68.10;94955.91;5011802;28;20559;-69
2024/01/09 00:57:54;;;;;;;6.27;5.60;;;2.10;99.90;;;1.77;68.29;94956.91;5007473;28;20449;-69
2024/01/09 01:00:23;;;;;;;8.23;5.93;;;2.10;99.90;;;1.76;68.97;94965.59;5007279;28;20568;-63
2024/01/09 01:02:50;;;;;;;6.77;6.03;;;2.10;99.90;;;1.77;68.98;94961.25;5008358;28;20462;-63
2024/01/09 01:05:18;;;;;;;6.20;5.37;;;2.10;99.90;;;1.75;69.41;94968.25;5012724;28;20462;-69
2024/01/09 01:07:45;;;;;;;6.97;5.60;;;2.10;99.90;;;1.72;68.72;94961.50;5012705;28;20520;-61
2024/01/09 01:10:13;;;;;;;5.77;5.17;;;2.00;99.90;;;1.69;69.29;94961.69;5006983;28;20548;-62
2024/01/09 01:12:41;;;;;;;6.57;5.70;;;2.00;99.90;;;1.69;69.01;94964.28;5007423;28;20449;-68
2024/01/09 01:15:09;;;;;;;12.30;6.10;;;2.00;99.90;;;1.68;69.35;94964.34;5005210;28;20493;-63
2024/01/09 01:17:38;;;;;;;6.63;5.73;;;2.00;99.90;;;1.67;69.10;94966.09;5007246;28;20818;-70
2024/01/09 01:20:08;;;;;;;7.40;6.13;;;2.00;99.90;;;1.66;68.25;94973.94;5009012;28;20524;-63
2024/01/09 01:22:35;;;;;;;6.03;5.30;;;2.00;99.90;;;1.65;68.62;94965.34;5019861;28;20454;-62
2024/01/09 01:25:02;;;;;;;8.07;5.70;;;2.00;99.90;;;1.65;69.68;94973.13;5011825;28;20466;-62
2024/01/09 01:27:30;;;;;;;6.50;5.70;;;1.90;99.90;;;1.64;68.23;94971.44;5009867;28;20461;-61
2024/01/09 01:29:57;;;;;;;7.13;6.03;;;1.90;99.90;;;1.65;68.37;94962.75;5007009;28;20473;-69
2024/01/09 01:32:25;;;;;;;5.97;5.37;;;1.90;99.90;;;1.67;68.43;94970.44;5010520;28;20472;-65
2024/01/09 01:34:53;;;;;;;7.47;5.67;;;1.90;99.90;;;1.67;69.34;94979.06;5010148;28;20497;-69
2024/01/09 01:37:21;;;;;;;8.70;5.93;;;2.00;99.90;;;1.67;69.18;94980.81;5010452;28;20449;-70
2024/01/09 01:39:48;;;;;;;8.53;6.80;;;2.00;99.90;;;1.64;68.82;94971.44;5010180;28;20466;-63
2024/01/09 01:42:15;;;;;;;6.63;5.80;;;2.00;99.90;;;1.63;69.58;94980.16;5010418;28;20464;-62
2024/01/09 01:44:43;;;;;;;6.33;5.70;;;1.90;99.90;;;1.63;69.20;94985.34;5009916;28;20811;-63
2024/01/09 01:47:10;;;;;;;6.77;5.80;;;1.90;99.90;;;1.62;69.31;94978.47;5006228;28;20446;-63
2024/01/09 01:49:38;;;;;;;7.93;5.70;;;1.90;99.90;;;1.63;69.40;94985.34;5010524;28;20441;-67
2024/01/09 01:52:07;;;;;;;5.97;5.07;;;1.90;99.90;;;1.63;68.40;94980.16;5006768;28;20469;-62
2024/01/09 01:54:34;;;;;;;6.50;5.90;;;1.90;99.90;;;1.65;68.50;94974.88;5004213;28;20489;-63
2024/01/09 01:57:01;;;;;;;8.20;6.30;;;1.90;99.90;;;1.66;68.70;94985.19;5012180;28;20557;-70
2024/01/09 01:59:29;;;;;;;7.30;5.83;;;2.00;99.90;;;1.69;69.22;94985.00;5012540;28;20816;-63
2024/01/09 02:01:56;;;;;;;6.10;5.50;;;2.00;99.90;;;1.73;69.07;94983.91;4999359;28;20497;-62
2024/01/09 02:04:24;;;;;;;7.50;6.00;;;2.00;99.90;;;1.76;69.38;94986.31;5013617;28;20454;-62
2024/01/09 02:06:51;;;;;;;6.00;5.40;;;2.10;99.90;;;1.78;68.35;94983.66;5004565;28;20497;-69
2024/01/09 02:09:20;;;;;;;8.60;4.80;;;2.10;99.90;;;1.81;68.64;94987.84;5009999;28;20442;-63
2024/01/09 02:11:49;;;;;;;5.70;5.20;;;2.10;99.90;;;1.82;68.34;94992.13;5006508;28;20852;-62
2024/01/09 02:14:17;;;;;;;6.17;5.57;;;2.10;99.90;;;1.82;68.80;94995.53;5006675;28;20924;-63
2024/01/09 02:16:44;;;;;;;8.90;6.30;;;2.10;99.90;;;1.82;68.73;94989.53;5011726;28;20466;-68
2024/01/09 02:19:11;;;;;;;7.90;5.87;;;2.10;99.90;;;1.82;68.57;94987.75;5018366;28;20449;-63
2024/01/09 02:21:39;;;;;;;7.30;5.50;;;2.10;99.90;;;1.82;68.16;94992.13;5006024;28;20472;-66
2024/01/09 02:24:06;;;;;;;9.93;6.60;;;2.10;99.90;;;1.83;69.05;94994.63;5005287;28;20457;-69
2024/01/09 02:26:37;;;;;;;7.00;6.00;;;2.10;99.90;;;1.85;68.93;94997.13;5009331;28;20469;-70
2024/01/09 02:29:06;;;;;;;5.90;5.33;;;2.10;99.90;;;1.87;68.94;94997.88;5006884;28;20613;-69
2024/01/09 02:31:35;;;;;;;8.10;6.40;;;2.20;99.90;;;1.88;68.26;94996.97;5009812;28;20913;-70
2024/01/09 02:34:03;;;;;;;6.53;5.77;;;2.20;99.90;;;1.89;68.82;94988.25;5002986;28;20462;-70
2024/01/09 02:36:31;;;;;;;8.13;6.47;;;2.20;99.90;;;1.91;68.50;94991.63;5009435;28;20489;-69
2024/01/09 02:38:58;;;;;;;6.03;5.43;;;2.20;99.90;;;1.92;68.05;94996.72;5009602;28;20450;-70
2024/01/09 02:41:25;;;;;;;8.97;5.93;;;2.20;99.90;;;1.94;68.42;94999.22;5006513;28;20557;-63
2024/01/09 02:43:52;;;;;;;7.03;6.33;;;2.20;99.90;;;1.93;67.94;95002.72;5009682;28;20461;-62
2024/01/09 02:46:20;;;;;;;5.87;5.27;;;2.20;99.90;;;1.91;67.98;94999.41;5009793;28;20484;-69
2024/01/09 02:48:48;;;;;;;7.63;6.20;;;2.20;99.90;;;1.89;68.21;94989.09;5010634;28;20461;-62
2024/01/09 02:51:16;;;;;;;8.77;6.33;;;2.20;99.90;;;1.88;68.04;94997.81;5009617;28;20904;-62
2024/01/09 02:53:43;;;;;;;9.10;6.40;;;2.20;99.90;;;1.85;67.88;94995.38;5009515;28;20452;-69
2024/01/09 02:56:10;;;;;;;7.90;6.10;;;2.20;99.90;;;1.81;67.88;94996.44;5009875;28;20497;-63
2024/01/09 02:58:38;;;;;;;9.23;5.60;;;2.10;99.90;;;1.81;68.37;94993.03;5018259;28;20469;-63
2024/01/09 03:01:06;;;;;;;7.97;6.40;;;2.10;99.90;;;1.78;68.78;94989.69;5011380;28;20485;-69
2024/01/09 03:03:34;;;;;;;7.97;5.90;;;2.10;99.90;;;1.77;68.11;94997.56;5007471;28;20453;-63
2024/01/09 03:06:02;;;;;;;8.97;6.27;;;2.10;99.90;;;1.75;67.92;94997.63;5009557;28;20988;-62
2024/01/09 03:08:30;;;;;;;11.90;6.53;;;2.10;99.90;;;1.75;68.88;95002.81;5009497;28;20552;-69
2024/01/09 03:10:57;;;;;;;7.30;6.20;;;2.10;99.90;;;1.76;67.77;95001.06;5009879;28;20465;-69
2024/01/09 03:13:24;;;;;;;6.47;5.83;;;2.10;99.90;;;1.71;68.45;95006.50;5001671;28;20469;-68
2024/01/09 03:15:52;;;;;;;8.00;6.20;;;2.00;99.90;;;1.70;68.62;94999.63;5019533;28;20500;-68
2024/01/09 03:18:19;;;;;;;10.40;6.87;;;2.00;99.90;;;1.66;68.75;95011.09;5015363;28;20454;-63
2024/01/09 03:20:47;;;;;;;6.00;5.50;;;2.00;99.90;;;1.65;67.78;95013.78;5012698;28;20473;-63
2024/01/09 03:23:16;;;;;;;9.80;6.90;;;2.00;99.90;;;1.62;68.76;95014.78;5008732;28;21099;-68
2024/01/09 03:25:43;;;;;;;14.30;6.10;;;1.90;99.90;;;1.59;68.33;95015.75;5008830;28;21053;-62
2024/01/09 03:28:10;;;;;;;8.27;6.20;;;1.90;99.90;;;1.57;68.55;95021.97;5012605;28;20531;-70
2024/01/09 03:30:38;;;;;;;7.07;6.30;;;1.90;99.90;;;1.55;68.96;95023.78;5012563;28;20469;-70
2024/01/09 03:33:05;;;;;;;11.23;6.53;;;1.90;99.90;;;1.55;69.02;95016.84;5010016;28;20512;-70
2024/01/09 03:35:33;;;;;;;8.00;5.70;;;1.90;99.90;;;1.58;68.71;95018.44;5008750;28;20500;-62
2024/01/09 03:38:00;;;;;;;8.70;6.63;;;1.90;99.90;;;1.59;67.94;95009.75;5009069;28;20461;-69
2024/01/09 03:40:29;;;;;;;7.93;6.40;;;1.90;99.90;;;1.58;68.40;95018.44;5008951;28;21013;-71
2024/01/09 03:42:56;;;;;;;8.07;6.63;;;1.90;99.90;;;1.55;68.16;95018.59;5005158;28;20451;-70
2024/01/09 03:45:24;;;;;;;16.30;6.53;;;1.80;99.90;;;1.52;67.71;95021.34;5007840;28;20468;-62
2024/01/09 03:47:51;;;;;;;8.43;6.63;;;1.80;99.90;;;1.51;67.54;95030.06;5008471;28;20449;-63
2024/01/09 03:50:18;;;;;;;8.73;6.17;;;1.80;99.90;;;1.51;69.04;95037.84;5008423;28;20478;-71
2024/01/09 03:52:46;;;;;;;7.20;6.47;;;1.80;99.90;;;1.50;68.79;95036.97;5008102;28;20448;-63
2024/01/09 03:55:15;;;;;;;9.17;6.40;;;1.80;99.90;;;1.49;68.87;95043.09;5011356;28;20500;-70
2024/01/09 03:57:44;;;;;;;9.47;6.40;;;1.80;99.90;;;1.49;67.90;95039.66;5008777;28;20461;-69
2024/01/09 04:00:13;;;;;;;9.30;6.70;;;1.80;99.90;;;1.47;68.48;95046.69;5008272;28;20594;-63
2024/01/09 04:02:40;;;;;;;8.20;6.70;;;1.80;99.90;;;1.45;68.17;95049.34;5006599;28;20508;-63
2024/01/09 04:05:08;;;;;;;10.33;7.37;;;1.80;99.90;;;1.43;68.60;95059.81;5011773;28;20559;-63
2024/01/09 04:07:36;;;;;;;9.70;6.03;;;1.70;99.90;;;1.44;68.48;95060.63;5011610;28;20454;-63
2024/01/09 04:10:04;;;;;;;8.90;6.70;;;1.80;99.90;;;1.45;68.71;95062.31;5012070;28;20612;-62
2024/01/09 04:12:31;;;;;;;8.00;6.23;;;1.80;99.90;;;1.46;68.83;95065.72;5012043;28;20489;-63
2024/01/09 04:15:00;;;;;;;10.53;6.90;;;1.80;99.90;;;1.47;67.78;95067.41;5005456;28;20473;-63
2024/01/09 04:17:28;;;;;;;9.50;6.83;;;1.80;99.90;;;1.49;68.09;95070.75;5011837;28;20572;-70
2024/01/09 04:19:55;;;;;;;10.07;7.37;;;1.70;99.90;;;1.49;67.90;95071.63;5011944;28;20485;-70
2024/01/09 04:22:23;;;;;;;7.80;6.67;;;1.80;99.90;;;1.51;67.25;95074.13;5011910;28;20544;-69
2024/01/09 04:24:50;;;;;;;8.40;6.67;;;1.80;99.90;;;1.50;68.46;95078.44;5010781;28;20835;-62
2024/01/09 04:27:18;;;;;;;12.00;9.20;;;1.80;99.90;;;1.52;67.07;95080.97;5011468;28;20453;-63
2024/01/09 04:29:45;;;;;;;22.90;16.00;;;1.80;99.90;;;1.54;67.25;95084.34;5009028;28;20461;-62
2024/01/09 04:32:14;;;;;;;36.23;19.17;;;1.80;99.90;;;1.54;67.98;95077.38;5008649;28;20539;-70
2024/01/09 04:34:43;;;;;;;13.90;10.37;;;1.90;99.90;;;1.55;67.46;95078.22;5008190;28;20446;-71
2024/01/09 04:37:10;;;;;;;14.70;11.10;;;1.90;99.90;;;1.54;66.59;95084.34;5008243;28;20486;-70
2024/01/09 04:39:37;;;;;;;28.17;20.00;;;1.90;99.90;;;1.52;67.08;95086.16;5009680;28;20982;-71
2024/01/09 04:42:05;;;;;;;26.83;15.03;;;1.80;99.90;;;1.50;67.28;95081.03;5011104;28;20445;-70
2024/01/09 04:44:32;;;;;;;15.47;9.10;;;1.80;99.90;;;1.50;66.84;95094.00;5010684;28;20456;-61
2024/01/09 04:47:00;;;;;;;27.30;17.83;;;1.80;99.90;;;1.49;67.03;95094.09;5011132;28;20449;-70
2024/01/09 04:49:29;;;;;;;17.70;11.30;;;1.80;99.90;;;1.47;66.72;95095.94;5008124;28;20453;-70
2024/01/09 04:51:56;;;;;;;13.07;10.30;;;1.80;99.90;;;1.46;66.14;95104.59;5008058;28;20462;-70
2024/01/09 04:54:24;;;;;;;9.60;7.27;;;1.80;99.90;;;1.43;67.39;95114.22;5009852;28;21027;-71
2024/01/09 04:56:51;;;;;;;11.33;8.70;;;1.70;99.90;;;1.41;66.85;95110.88;5010908;28;20581;-71
2024/01/09 04:59:19;;;;;;;8.60;6.90;;;1.70;99.90;;;1.38;67.61;95121.41;5010968;28;20446;-74
2024/01/09 05:01:50;;;;;;;12.77;7.80;;;1.70;99.90;;;1.40;67.65;95123.91;5009461;28;21056;-62
2024/01/09 05:04:17;;;;;;;12.50;7.20;;;1.70;99.90;;;1.45;66.74;95121.91;5007331;28;20446;-62
2024/01/09 05:06:46;;;;;;;13.37;7.23;;;1.70;99.90;;;1.47;67.87;95127.03;5006704;28;20462;-73
2024/01/09 05:09:14;;;;;;;13.70;10.37;;;1.80;99.90;;;1.52;67.76;95125.88;5011710;28;20438;-68
2024/01/09 05:11:42;;;;;;;13.50;9.60;;;1.80;99.90;;;1.58;66.94;95122.13;5011573;28;20640;-65
2024/01/09 05:14:09;;;;;;;11.83;7.50;;;1.80;99.90;;;1.59;66.11;95119.44;5010497;28;20532;-65
2024/01/09 05:16:36;;;;;;;10.67;7.63;;;1.90;99.90;;;1.62;66.47;95113.28;5011818;28;20529;-63
2024/01/09 05:19:04;;;;;;;18.00;11.90;;;1.90;99.90;;;1.62;66.19;95105.50;5014966;28;20903;-63
2024/01/09 05:21:31;;;;;;;12.00;9.33;;;1.90;99.90;;;1.62;66.97;95092.53;5010931;28;20490;-63
2024/01/09 05:24:00;;;;;;;10.13;7.73;;;1.90;99.90;;;1.64;67.14;95095.88;5010658;28;20468;-63
2024/01/09 05:26:28;;;;;;;10.53;7.73;;;1.90;99.90;;;1.65;66.30;95113.13;5003415;28;20498;-62
2024/01/09 05:28:55;;;;;;;17.43;7.90;;;1.90;99.90;;;1.66;66.02;95117.41;5009609;28;20913;-60
2024/01/09 05:31:24;;;;;;;11.20;7.53;;;1.90;99.90;;;1.70;66.36;95120.66;5009711;28;20468;-62
2024/01/09 05:33:52;;;;;;;14.47;8.07;;;2.00;99.90;;;1.71;66.87;95114.56;5006752;28;20449;-63
2024/01/09 05:36:22;;;;;;;10.20;7.70;;;2.00;99.90;;;1.72;66.52;95114.47;5009631;28;20956;-62
2024/01/09 05:38:51;;;;;;;18.53;7.40;;;2.00;99.90;;;1.75;66.99;95113.47;5009109;28;20516;-61
2024/01/09 05:41:23;;;;;;;18.53;9.50;;;2.00;99.90;;;1.75;67.61;95114.31;5009999;28;21028;-61
2024/01/09 05:43:51;;;;;;;12.00;7.40;;;2.00;99.90;;;1.79;67.30;95115.00;5009833;28;20468;-70
2024/01/09 05:46:19;;;;;;;16.67;6.53;;;2.10;99.90;;;1.82;67.29;95124.38;5012854;28;20545;-71
2024/01/09 05:48:47;;;;;;;6.63;5.90;;;2.10;99.90;;;1.82;66.54;95129.56;5017514;28;20464;-71
2024/01/09 05:51:14;;;;;;;9.10;5.50;;;2.10;99.90;;;1.82;66.64;95138.16;5014123;28;20474;-68
2024/01/09 05:53:44;;;;;;;8.57;6.33;;;2.10;99.90;;;1.82;65.63;95134.75;5008992;28;20841;-66
2024/01/09 05:56:12;;;;;;;7.97;5.87;;;2.10;99.90;;;1.79;65.41;95152.13;5010432;28;20508;-67
2024/01/09 05:58:43;;;;;;;17.03;5.77;;;2.10;99.90;;;1.81;65.20;95162.41;5008950;28;20454;-68
2024/01/09 06:01:11;;;;;;;7.17;5.47;;;2.10;99.90;;;1.81;66.15;95164.19;5008932;28;20505;-68
2024/01/09 06:03:40;;;;;;;8.07;5.67;;;2.10;99.90;;;1.81;64.81;95170.19;5008009;28;20464;-62
2024/01/09 06:06:08;;;;;;;5.83;4.70;;;2.10;99.90;;;1.83;65.38;95173.56;4999745;28;20489;-66
2024/01/09 06:08:36;;;;;;;5.63;4.10;;;2.10;99.90;;;1.82;64.66;95184.03;5010331;28;20500;-67
2024/01/09 06:11:04;;;;;;;5.70;4.03;;;2.10;99.90;;;1.78;63.05;95193.69;5010394;28;20808;-62
2024/01/09 06:13:31;;;;;;;4.17;3.83;;;2.10;99.90;;;1.76;63.71;95214.50;5006791;28;20486;-62
2024/01/09 06:16:00;;;;;;;11.43;5.10;;;2.00;99.90;;;1.74;64.19;95216.34;5009113;28;20584;-68
2024/01/09 06:18:28;;;;;;;5.47;4.37;;;2.00;99.90;;;1.75;64.24;95227.56;5009505;28;20503;-62
2024/01/09 06:20:55;;;;;;;4.07;3.77;;;2.00;99.90;;;1.75;63.75;95232.75;5009836;28;20859;-67
2024/01/09 06:23:22;;;;;;;6.27;4.57;;;2.00;99.90;;;1.76;63.90;95244.81;5010602;28;20464;-64
2024/01/09 06:25:50;;;;;;;8.07;3.97;;;2.00;99.90;;;1.76;63.82;95250.81;5010573;28;20865;-68
2024/01/09 06:28:17;;;;;;;2.77;2.57;;;2.00;99.90;;;1.75;63.74;95267.31;5012362;28;20866;-67
2024/01/09 06:30:45;;;;;;;5.23;3.60;;;2.00;99.90;;;1.69;63.86;95265.03;5011152;28;20477;-64
2024/01/09 06:33:14;;;;;;;5.90;3.43;;;2.00;99.90;;;1.69;63.11;95270.22;5004245;28;21016;-67
2024/01/09 06:35:42;;;;;;;3.90;3.63;;;2.00;99.90;;;1.66;62.91;95275.56;5010171;28;20461;-67
2024/01/09 06:38:09;;;;;;;3.37;3.07;;;1.90;99.90;;;1.66;63.94;95288.50;5010432;28;20541;-61
2024/01/09 06:40:37;;;;;;;5.03;4.50;;;2.00;99.90;;;1.64;64.17;95292.91;5006777;28;20535;-67
2024/01/09 06:43:05;;;;;;;4.63;3.80;;;1.90;99.90;;;1.65;63.31;95301.56;5010118;28;20935;-67
2024/01/09 06:45:33;;;;;;;4.63;3.37;;;1.90;99.90;;;1.64;63.71;95308.47;5009795;28;20477;-68
2024/01/09 06:48:01;;;;;;;5.00;3.90;;;1.90;99.90;;;1.63;61.81;95311.13;5009340;28;20512;-63
2024/01/09 06:50:29;;;;;;;4.40;4.10;;;1.90;99.70;;;1.64;62.52;95313.66;5009431;28;20488;-67
2024/01/09 06:52:57;;;;;;;5.00;4.50;;;1.90;99.90;;;1.61;63.72;95321.59;5013886;28;20826;-67
2024/01/09 06:55:24;;;;;;;4.73;4.27;;;1.90;99.90;;;1.56;63.11;95328.75;5013782;28;20969;-67
2024/01/09 06:57:52;;;;;;;4.63;3.53;;;1.90;99.90;;;1.52;62.69;95335.00;5014001;28;20598;-64
2024/01/09 07:00:20;;;;;;;4.33;3.80;;;1.80;99.70;;;1.48;62.96;95336.91;5013319;28;20473;-63
2024/01/09 07:02:47;;;;;;;5.07;4.33;;;1.80;99.90;;;1.43;62.33;95339.69;5005130;28;20962;-63
2024/01/09 07:05:15;;;;;;;5.97;3.77;;;1.80;99.70;;;1.41;62.92;95343.28;5008257;28;20545;-67
2024/01/09 07:07:43;;;;;;;8.50;3.87;;;1.70;99.60;;;1.39;62.47;95356.31;5011831;28;20623;-63
2024/01/09 07:10:11;;;;;;;5.63;4.10;;;1.70;99.80;;;1.38;62.36;95361.56;5013077;28;20465;-68
2024/01/09 07:12:38;;;;;;;3.03;2.83;;;1.70;99.90;;;1.36;62.24;95365.97;5013341;28;20495;-67
2024/01/09 07:15:08;;;;;;;4.70;3.50;;;1.70;99.60;;;1.33;63.10;95366.94;5013114;28;20469;-63
2024/01/09 07:17:35;;;;;;;4.10;3.60;;;1.60;99.90;;;1.32;63.38;95365.28;5012765;28;20485;-63
2024/01/09 07:20:03;;;;;;;3.43;3.10;;;1.60;99.90;;;1.33;63.92;95366.94;5012635;28;21000;-68
2024/01/09 07:22:31;;;;;;;4.13;3.83;;;1.60;99.90;;;1.34;63.11;95373.81;5012712;28;20484;-63
2024/01/09 07:25:00;;;;;;;4.33;3.47;;;1.60;99.90;;;1.34;63.19;95373.81;5012773;28;21061;-63
2024/01/09 07:27:27;;;;;;;3.77;3.47;;;1.60;99.90;;;1.35;63.14;95378.09;5012808;28;20464;-63
2024/01/09 07:29:55;;;;;;;5.10;4.67;;;1.60;99.90;;;1.35;63.42;95375.53;5013245;28;20473;-67
2024/01/09 07:32:22;;;;;;;10.80;3.93;;;1.70;99.90;;;1.38;63.42;95382.28;5011170;28;20890;-64
2024/01/09 07:34:49;;;;;;;3.97;3.53;;;1.70;99.90;;;1.39;63.25;95381.38;5010096;28;20469;-64
2024/01/09 07:37:17;;;;;;;3.60;3.30;;;1.70;99.90;;;1.38;62.81;95388.34;5012938;28;20524;-63
2024/01/09 07:39:44;;;;;;;3.90;3.60;;;1.70;99.90;;;1.33;63.53;95374.72;5012656;28;20454;-67
2024/01/09 07:42:13;;;;;;;4.60;3.70;;;1.70;99.90;;;1.32;63.67;95386.03;5013037;28;20493;-67
2024/01/09 07:44:41;;;;;;;3.80;3.50;;;1.60;99.90;;;1.29;63.71;95388.75;5012456;28;20540;-67
2024/01/09 07:47:10;;;;;;;6.57;4.03;;;1.60;99.90;;;1.29;63.87;95396.53;5012442;28;20453;-63
2024/01/09 07:49:38;;;;;;;4.50;4.00;;;1.60;99.90;;;1.31;63.78;95392.13;5012541;28;20465;-67
2024/01/09 07:52:07;;;;;;;4.83;3.93;;;1.60;99.90;;;1.31;63.25;95392.13;5013367;28;20892;-66
2024/01/09 07:54:34;;;;;;;4.50;4.10;;;1.60;99.90;;;1.30;63.47;95387.00;5016452;28;20442;-68
2024/01/09 07:57:01;;;;;;;3.80;3.40;;;1.60;99.90;;;1.30;64.04;95392.19;5013209;28;20580;-67
2024/01/09 07:59:30;;;;;;;2.93;2.77;;;1.60;99.90;;;1.30;62.89;95394.78;5010853;28;20870;-67
2024/01/09 08:02:00;;;;;;;5.30;4.00;;;1.60;99.90;;;1.28;62.83;95387.06;5004771;28;20449;-64
2024/01/09 08:04:27;;;;;;;5.40;3.70;;;1.60;99.90;;;1.28;63.03;95389.66;5012208;28;20540;-64
2024/01/09 08:06:55;;;;;;;3.37;3.07;;;1.60;99.90;;;1.29;63.53;95404.31;5012313;28;20453;-63
2024/01/09 08:09:22;;;;;;;4.90;3.37;;;1.60;99.90;;;1.30;62.91;95394.78;5012186;28;20465;-64
2024/01/09 08:11:49;;;;;;;4.57;4.17;;;1.60;99.70;;;1.29;62.01;95404.31;5011902;28;20544;-63
2024/01/09 08:14:17;;;;;;;4.13;3.83;;;1.60;99.60;;;1.26;62.57;95401.84;5009956;28;20450;-65
2024/01/09 08:16:46;;;;;;;3.47;3.27;;;1.60;99.40;;;1.24;63.02;95411.47;5005385;28;20496;-65
2024/01/09 08:19:14;;;;;;;7.27;3.73;;;1.60;99.50;;;1.24;61.89;95429.59;5011524;28;20945;-63
2024/01/09 08:21:42;;;;;;;9.20;5.50;;;1.50;99.30;;;1.22;62.73;95421.03;5011573;28;20465;-69
2024/01/09 08:24:17;;;;;;;4.03;3.70;;;1.60;99.40;;;1.21;62.44;95416.78;5010162;28;20545;-67
2024/01/09 08:26:48;;;;;;;4.13;3.73;;;1.50;99.20;;;1.18;62.73;95422.94;5011218;28;20496;-66
2024/01/09 08:29:16;;;;;;;4.30;3.67;;;1.50;99.40;;;1.15;62.67;95424.84;5011931;28;20437;-66
2024/01/09 08:31:49;;;;;;;7.30;4.33;;;1.50;99.20;;;1.13;61.63;95432.66;5011613;28;20469;-66
2024/01/09 08:34:16;;;;;;;4.97;4.10;;;1.50;99.10;;;1.12;61.98;95436.16;5010692;28;20906;-67
2024/01/09 08:36:45;;;;;;;5.23;4.27;;;1.40;98.70;;;1.10;61.98;95443.16;5010347;28;20485;-67
2024/01/09 08:39:14;;;;;;;4.93;4.20;;;1.40;98.90;;;1.12;62.39;95440.50;5003324;28;20982;-66
2024/01/09 08:41:41;;;;;;;4.57;4.17;;;1.40;99.00;;;1.11;62.74;95454.38;5004406;28;21001;-66
2024/01/09 08:44:09;;;;;;;4.40;4.00;;;1.40;99.10;;;1.12;62.22;95448.28;5009225;28;20454;-67
2024/01/09 08:46:37;;;;;;;4.80;3.17;;;1.40;99.30;;;1.12;61.67;95448.28;5005268;28;20474;-67
2024/01/09 08:49:06;;;;;;;5.70;3.20;;;1.40;99.00;;;1.13;61.22;95457.72;5011523;28;20456;-67
2024/01/09 08:51:34;;;;;;;4.23;3.80;;;1.40;99.00;;;1.12;61.64;95456.06;5008804;28;20508;-66
2024/01/09 08:54:02;;;;;;;5.40;4.30;;;1.40;99.30;;;1.14;61.47;95459.41;5010242;28;20456;-66
2024/01/09 08:56:29;;;;;;;5.53;3.40;;;1.40;99.30;;;1.13;62.38;95457.72;5011151;28;20545;-67
2024/01/09 08:58:57;;;;;;;4.43;3.97;;;1.50;99.00;;;1.10;61.62;95453.53;5009179;28;20460;-67
2024/01/09 09:01:25;;;;;;;6.47;4.27;;;1.50;98.80;;;1.09;61.66;95451.00;5006387;28;20887;-66
2024/01/09 09:03:53;;;;;;;6.60;5.00;;;1.40;98.70;;;1.11;61.45;95449.19;5009083;28;20457;-67
2024/01/09 09:06:22;;;;;;;8.40;4.53;;;1.40;98.90;;;1.13;62.45;95452.53;5005597;28;20462;-68
2024/01/09 09:08:49;;;;;;;10.80;5.23;;;1.50;98.70;;;1.19;61.03;95452.25;5010355;28;20868;-69
2024/01/09 09:11:17;;;;;;;5.67;4.40;;;1.50;98.70;;;1.22;61.38;95462.50;5009671;28;20466;-66
2024/01/09 09:13:45;;;;;;;3.50;3.20;;;1.50;98.60;;;1.25;61.02;95462.34;5006537;28;20446;-67
2024/01/09 09:16:12;;;;;;;5.00;4.17;;;1.50;98.40;;;1.24;59.93;95468.47;5007203;28;21160;-66
2024/01/09 09:18:39;;;;;;;3.63;2.90;;;1.60;98.10;;;1.21;59.91;95472.03;5011324;28;20484;-67
2024/01/09 09:21:07;;;;;;;4.87;4.00;;;1.60;97.70;;;1.19;59.47;95468.66;5007341;28;20481;-68
2024/01/09 09:23:36;;;;;;;3.03;2.77;;;1.50;97.80;;;1.17;58.36;95473.06;5010822;28;20976;-67
2024/01/09 09:26:04;;;;;;;3.73;2.97;;;1.50;96.60;;;1.13;59.50;95474.13;5006223;28;20520;-67
2024/01/09 09:28:31;;;;;;;2.87;2.67;;;1.50;97.00;;;1.15;60.94;95476.66;5011165;28;20541;-70
2024/01/09 09:30:59;;;;;;;2.97;2.67;;;1.50;97.70;;;1.18;61.22;95479.09;5010611;28;20543;-61
2024/01/09 09:33:28;;;;;;;4.93;3.47;;;1.50;97.60;;;1.19;59.99;95484.22;5008187;28;20457;-62
2024/01/09 09:35:56;;;;;;;2.90;2.63;;;1.50;96.90;;;1.20;59.31;95479.88;5008592;28;20469;-62
2024/01/09 09:38:24;;;;;;;3.47;3.07;;;1.50;97.00;;;1.16;59.06;95483.50;5010236;28;20870;-61
2024/01/09 09:40:53;;;;;;;2.87;2.67;;;1.50;97.10;;;1.14;59.22;95486.16;5009697;28;20469;-63
2024/01/09 09:43:24;;;;;;;4.47;3.27;;;1.40;96.10;;;1.16;59.80;95496.44;5010511;28;20465;-62
2024/01/09 09:45:51;;;;;;;3.20;2.90;;;1.50;96.60;;;1.17;59.73;95482.59;5009617;28;20477;-62
2024/01/09 09:48:23;;;;;;;3.03;2.70;;;1.50;96.50;;;1.19;59.39;95478.16;5010236;28;20453;-62
2024/01/09 09:50:52;;;;;;;4.90;4.10;;;1.50;96.60;;;1.17;59.15;95487.78;5009988;28;21093;-62
2024/01/09 09:53:20;;;;;;;5.63;3.07;;;1.50;96.10;;;1.17;58.53;95480.81;5009495;28;20481;-62
2024/01/09 09:55:48;;;;;;;4.10;3.00;;;1.50;95.70;;;1.15;57.89;95474.88;5005526;28;20497;-64
2024/01/09 09:58:16;;;;;;;4.40;3.30;;;1.50;95.90;;;1.18;58.34;95477.34;5009912;28;21056;-64
2024/01/09 10:00:44;;;;;;;3.30;3.00;;;1.50;95.10;;;1.17;57.07;95474.81;5009925;28;20469;-63
2024/01/09 10:03:13;;;;;;;3.30;3.00;;;1.50;95.10;;;1.14;57.45;95477.53;5008384;28;20541;-62
2024/01/09 10:05:41;;;;;;;3.60;3.30;;;1.50;95.00;;;1.15;58.04;95472.28;5009179;28;20958;-61
2024/01/09 10:08:09;;;;;;;3.60;3.30;;;1.50;95.40;;;1.21;58.01;95466.00;5010533;28;20545;-68
2024/01/09 10:10:36;;;;;;;5.43;3.80;;;1.50;95.50;;;1.24;57.82;95460.69;5012418;28;20485;-68
2024/01/09 10:13:04;;;;;;;4.43;4.07;;;1.50;95.20;;;1.26;58.16;95471.81;5010752;28;20465;-68
2024/01/09 10:15:33;;;;;;;4.23;3.83;;;1.60;95.00;;;1.24;57.74;95468.47;5010109;28;20473;-68
2024/01/09 10:18:01;;;;;;;4.47;3.10;;;1.60;94.90;;;1.21;56.75;95471.19;5004466;28;20508;-71
2024/01/09 10:20:30;;;;;;;4.63;4.23;;;1.60;94.50;;;1.20;58.01;95474.69;5009398;28;20548;-69
2024/01/09 10:22:58;;;;;;;4.87;4.00;;;1.50;94.60;;;1.19;57.46;95475.59;5006009;28;20501;-62
2024/01/09 10:25:26;;;;;;;6.17;4.63;;;1.50;94.10;;;1.18;56.48;95473.91;5005974;28;20476;-69
2024/01/09 10:27:53;;;;;;;7.27;4.20;;;1.50;94.40;;;1.12;58.56;95480.19;5007155;28;20445;-70
2024/01/09 10:30:22;;;;;;;5.60;3.87;;;1.50;94.60;;;1.09;58.07;95487.28;5006382;28;21015;-63
2024/01/09 10:32:53;;;;;;;5.33;4.60;;;1.40;94.70;;;1.04;57.93;95492.66;5008360;28;20489;-61